sensor_id;sensor_type;location;lat;lon;timestamp;P1;durP1;ratioP1;P2;durP2;ratioP2
50605;SDS011;36557;53.572;10.170;2024-02-26T00:01:39;10.50;;;6.93;;
50605;SDS011;36557;53.572;10.170;2024-02-26T00:04:05;9.93;;;7.25;;
50605;SDS011;36557;53.572;10.170;2024-02-26T00:06:31;9.25;;;6.28;;
50605;SDS011;36557;53.572;10.170;2024-02-26T00:08:57;10.05;;;6.07;;
50605;SDS011;36557;53.572;10.170;2024-02-26T00:11:23;10.15;;;6.10;;
50605;SDS011;36557;53.572;10.170;2024-02-26T00:13:49;7.95;;;5.90;;
50605;SDS011;36557;53.572;10.170;2024-02-26T00:16:14;7.70;;;5.73;;
50605;SDS011;36557;53.572;10.170;2024-02-26T00:18:40;7.97;;;5.50;;
50605;SDS011;36557;53.572;10.170;2024-02-26T00:21:06;7.10;;;5.20;;
50605;SDS011;36557;53.572;10.170;2024-02-26T00:23:31;6.45;;;4.85;;
50605;SDS011;36557;53.572;10.170;2024-02-26T00:25:57;8.50;;;5.00;;
50605;SDS011;36557;53.572;10.170;2024-02-26T00:28:23;6.93;;;4.85;;
50605;SDS011;36557;53.572;10.170;2024-02-26T00:30:50;6.67;;;4.83;;
50605;SDS011;36557;53.572;10.170;2024-02-26T00:33:20;5.97;;;4.43;;
50605;SDS011;36557;53.572;10.170;2024-02-26T00:35:46;6.85;;;5.00;;
50605;SDS011;36557;53.572;10.170;2024-02-26T00:38:12;6.30;;;4.78;;
50605;SDS011;36557;53.572;10.170;2024-02-26T00:40:38;7.80;;;4.70;;
50605;SDS011;36557;53.572;10.170;2024-02-26T00:43:05;7.10;;;4.70;;
50605;SDS011;36557;53.572;10.170;2024-02-26T00:45:31;7.03;;;4.72;;
50605;SDS011;36557;53.572;10.170;2024-02-26T00:47:58;7.30;;;4.70;;
50605;SDS011;36557;53.572;10.170;2024-02-26T00:50:26;7.10;;;4.88;;
50605;SDS011;36557;53.572;10.170;2024-02-26T00:52:52;7.50;;;4.63;;
50605;SDS011;36557;53.572;10.170;2024-02-26T00:55:18;7.63;;;4.80;;
50605;SDS011;36557;53.572;10.170;2024-02-26T00:57:43;6.40;;;4.45;;
50605;SDS011;36557;53.572;10.170;2024-02-26T01:00:09;7.82;;;5.10;;
50605;SDS011;36557;53.572;10.170;2024-02-26T01:02:35;6.88;;;4.82;;
50605;SDS011;36557;53.572;10.170;2024-02-26T01:05:02;7.18;;;5.50;;
50605;SDS011;36557;53.572;10.170;2024-02-26T01:07:28;7.23;;;4.87;;
50605;SDS011;36557;53.572;10.170;2024-02-26T01:09:53;7.13;;;4.73;;
50605;SDS011;36557;53.572;10.170;2024-02-26T01:12:19;6.55;;;4.82;;
50605;SDS011;36557;53.572;10.170;2024-02-26T01:14:45;7.35;;;5.22;;
50605;SDS011;36557;53.572;10.170;2024-02-26T01:17:10;7.97;;;4.90;;
50605;SDS011;36557;53.572;10.170;2024-02-26T01:19:36;7.43;;;5.20;;
50605;SDS011;36557;53.572;10.170;2024-02-26T01:22:02;6.67;;;4.70;;
50605;SDS011;36557;53.572;10.170;2024-02-26T01:24:27;7.38;;;4.90;;
50605;SDS011;36557;53.572;10.170;2024-02-26T01:26:54;6.95;;;5.00;;
50605;SDS011;36557;53.572;10.170;2024-02-26T01:29:19;6.57;;;4.87;;
50605;SDS011;36557;53.572;10.170;2024-02-26T01:31:45;6.83;;;4.50;;
50605;SDS011;36557;53.572;10.170;2024-02-26T01:34:11;6.43;;;4.60;;
50605;SDS011;36557;53.572;10.170;2024-02-26T01:36:37;6.63;;;4.60;;
50605;SDS011;36557;53.572;10.170;2024-02-26T01:39:02;5.88;;;4.57;;
50605;SDS011;36557;53.572;10.170;2024-02-26T01:41:28;5.43;;;4.40;;
50605;SDS011;36557;53.572;10.170;2024-02-26T01:43:54;5.90;;;4.43;;
50605;SDS011;36557;53.572;10.170;2024-02-26T01:46:20;6.45;;;4.65;;
50605;SDS011;36557;53.572;10.170;2024-02-26T01:48:46;6.65;;;4.75;;
50605;SDS011;36557;53.572;10.170;2024-02-26T01:51:14;6.50;;;4.53;;
50605;SDS011;36557;53.572;10.170;2024-02-26T01:53:42;6.33;;;4.70;;
50605;SDS011;36557;53.572;10.170;2024-02-26T01:56:08;7.00;;;4.80;;
50605;SDS011;36557;53.572;10.170;2024-02-26T01:58:34;5.97;;;4.50;;
50605;SDS011;36557;53.572;10.170;2024-02-26T02:01:01;6.80;;;4.60;;
50605;SDS011;36557;53.572;10.170;2024-02-26T02:03:28;7.15;;;5.07;;
50605;SDS011;36557;53.572;10.170;2024-02-26T02:05:54;6.03;;;4.57;;
50605;SDS011;36557;53.572;10.170;2024-02-26T02:08:20;5.93;;;4.53;;
50605;SDS011;36557;53.572;10.170;2024-02-26T02:10:48;6.95;;;4.38;;
50605;SDS011;36557;53.572;10.170;2024-02-26T02:13:15;6.60;;;4.72;;
50605;SDS011;36557;53.572;10.170;2024-02-26T02:15:41;9.18;;;5.10;;
50605;SDS011;36557;53.572;10.170;2024-02-26T02:18:07;8.65;;;4.75;;
50605;SDS011;36557;53.572;10.170;2024-02-26T02:20:33;10.43;;;4.57;;
50605;SDS011;36557;53.572;10.170;2024-02-26T02:22:59;10.93;;;4.93;;
50605;SDS011;36557;53.572;10.170;2024-02-26T02:25:25;17.30;;;4.50;;
50605;SDS011;36557;53.572;10.170;2024-02-26T02:27:51;19.73;;;4.20;;
50605;SDS011;36557;53.572;10.170;2024-02-26T02:30:20;21.45;;;4.00;;
50605;SDS011;36557;53.572;10.170;2024-02-26T02:32:50;14.77;;;3.72;;
50605;SDS011;36557;53.572;10.170;2024-02-26T02:35:16;12.23;;;3.70;;
50605;SDS011;36557;53.572;10.170;2024-02-26T02:37:42;9.50;;;3.97;;
50605;SDS011;36557;53.572;10.170;2024-02-26T02:40:08;4.40;;;3.58;;
50605;SDS011;36557;53.572;10.170;2024-02-26T02:42:34;4.80;;;3.53;;
50605;SDS011;36557;53.572;10.170;2024-02-26T02:44:59;4.30;;;3.60;;
50605;SDS011;36557;53.572;10.170;2024-02-26T02:47:25;4.38;;;3.50;;
50605;SDS011;36557;53.572;10.170;2024-02-26T02:49:51;4.78;;;3.50;;
50605;SDS011;36557;53.572;10.170;2024-02-26T02:52:16;4.63;;;3.53;;
50605;SDS011;36557;53.572;10.170;2024-02-26T02:54:42;5.90;;;3.90;;
50605;SDS011;36557;53.572;10.170;2024-02-26T02:57:08;5.50;;;4.00;;
50605;SDS011;36557;53.572;10.170;2024-02-26T02:59:34;5.13;;;3.75;;
50605;SDS011;36557;53.572;10.170;2024-02-26T03:02:01;5.00;;;3.75;;
50605;SDS011;36557;53.572;10.170;2024-02-26T03:04:26;4.87;;;3.70;;
50605;SDS011;36557;53.572;10.170;2024-02-26T03:06:52;5.43;;;3.80;;
50605;SDS011;36557;53.572;10.170;2024-02-26T03:09:18;4.67;;;3.50;;
50605;SDS011;36557;53.572;10.170;2024-02-26T03:11:43;5.43;;;4.00;;
50605;SDS011;36557;53.572;10.170;2024-02-26T03:14:09;5.55;;;4.10;;
50605;SDS011;36557;53.572;10.170;2024-02-26T03:16:35;5.75;;;3.90;;
50605;SDS011;36557;53.572;10.170;2024-02-26T03:19:01;6.68;;;4.10;;
50605;SDS011;36557;53.572;10.170;2024-02-26T03:21:28;6.47;;;4.40;;
50605;SDS011;36557;53.572;10.170;2024-02-26T03:23:54;5.88;;;4.30;;
50605;SDS011;36557;53.572;10.170;2024-02-26T03:26:20;5.25;;;4.00;;
50605;SDS011;36557;53.572;10.170;2024-02-26T03:28:46;6.07;;;4.22;;
50605;SDS011;36557;53.572;10.170;2024-02-26T03:31:12;7.00;;;4.00;;
50605;SDS011;36557;53.572;10.170;2024-02-26T03:33:38;5.30;;;3.83;;
50605;SDS011;36557;53.572;10.170;2024-02-26T03:36:04;5.70;;;3.88;;
50605;SDS011;36557;53.572;10.170;2024-02-26T03:38:30;5.13;;;3.60;;
50605;SDS011;36557;53.572;10.170;2024-02-26T03:40:56;5.50;;;3.83;;
50605;SDS011;36557;53.572;10.170;2024-02-26T03:43:22;5.83;;;4.10;;
50605;SDS011;36557;53.572;10.170;2024-02-26T03:45:47;5.63;;;4.10;;
50605;SDS011;36557;53.572;10.170;2024-02-26T03:48:13;5.68;;;3.95;;
50605;SDS011;36557;53.572;10.170;2024-02-26T03:50:39;6.13;;;4.10;;
50605;SDS011;36557;53.572;10.170;2024-02-26T03:53:04;5.85;;;4.00;;
50605;SDS011;36557;53.572;10.170;2024-02-26T03:55:30;5.50;;;3.95;;
50605;SDS011;36557;53.572;10.170;2024-02-26T03:57:56;5.93;;;4.10;;
50605;SDS011;36557;53.572;10.170;2024-02-26T04:00:22;5.80;;;4.30;;
50605;SDS011;36557;53.572;10.170;2024-02-26T04:02:47;7.43;;;4.90;;
50605;SDS011;36557;53.572;10.170;2024-02-26T04:05:13;8.13;;;5.07;;
50605;SDS011;36557;53.572;10.170;2024-02-26T04:07:39;8.03;;;5.10;;
50605;SDS011;36557;53.572;10.170;2024-02-26T04:10:09;6.68;;;4.82;;
50605;SDS011;36557;53.572;10.170;2024-02-26T04:12:35;6.88;;;4.90;;
50605;SDS011;36557;53.572;10.170;2024-02-26T04:15:03;6.47;;;4.68;;
50605;SDS011;36557;53.572;10.170;2024-02-26T04:17:29;6.28;;;4.43;;
50605;SDS011;36557;53.572;10.170;2024-02-26T04:19:55;6.70;;;4.30;;
50605;SDS011;36557;53.572;10.170;2024-02-26T04:22:21;7.40;;;4.80;;
50605;SDS011;36557;53.572;10.170;2024-02-26T04:24:46;5.75;;;4.38;;
50605;SDS011;36557;53.572;10.170;2024-02-26T04:27:12;7.35;;;4.53;;
50605;SDS011;36557;53.572;10.170;2024-02-26T04:29:38;5.90;;;4.40;;
50605;SDS011;36557;53.572;10.170;2024-02-26T04:32:03;5.93;;;4.33;;
50605;SDS011;36557;53.572;10.170;2024-02-26T04:34:30;6.38;;;4.30;;
50605;SDS011;36557;53.572;10.170;2024-02-26T04:36:56;9.27;;;5.60;;
50605;SDS011;36557;53.572;10.170;2024-02-26T04:39:21;8.00;;;5.57;;
50605;SDS011;36557;53.572;10.170;2024-02-26T04:41:47;10.45;;;6.20;;
50605;SDS011;36557;53.572;10.170;2024-02-26T04:44:13;9.77;;;5.70;;
50605;SDS011;36557;53.572;10.170;2024-02-26T04:46:39;7.57;;;5.20;;
50605;SDS011;36557;53.572;10.170;2024-02-26T04:49:04;8.37;;;5.20;;
50605;SDS011;36557;53.572;10.170;2024-02-26T04:51:30;7.55;;;4.72;;
50605;SDS011;36557;53.572;10.170;2024-02-26T04:53:56;7.85;;;4.85;;
50605;SDS011;36557;53.572;10.170;2024-02-26T04:56:22;12.38;;;6.93;;
50605;SDS011;36557;53.572;10.170;2024-02-26T04:58:48;20.95;;;9.60;;
50605;SDS011;36557;53.572;10.170;2024-02-26T05:01:14;22.05;;;10.88;;
50605;SDS011;36557;53.572;10.170;2024-02-26T05:03:42;15.90;;;8.63;;
50605;SDS011;36557;53.572;10.170;2024-02-26T05:06:08;15.05;;;8.50;;
50605;SDS011;36557;53.572;10.170;2024-02-26T05:08:34;12.80;;;7.50;;
50605;SDS011;36557;53.572;10.170;2024-02-26T05:11:01;12.75;;;7.20;;
50605;SDS011;36557;53.572;10.170;2024-02-26T05:13:28;14.32;;;7.75;;
50605;SDS011;36557;53.572;10.170;2024-02-26T05:15:54;12.43;;;7.53;;
50605;SDS011;36557;53.572;10.170;2024-02-26T05:18:20;13.23;;;7.23;;
50605;SDS011;36557;53.572;10.170;2024-02-26T05:20:46;12.32;;;7.60;;
50605;SDS011;36557;53.572;10.170;2024-02-26T05:23:12;11.93;;;7.10;;
50605;SDS011;36557;53.572;10.170;2024-02-26T05:25:38;11.32;;;6.90;;
50605;SDS011;36557;53.572;10.170;2024-02-26T05:28:04;10.82;;;6.70;;
50605;SDS011;36557;53.572;10.170;2024-02-26T05:30:30;9.38;;;6.07;;
50605;SDS011;36557;53.572;10.170;2024-02-26T05:32:55;10.57;;;6.03;;
50605;SDS011;36557;53.572;10.170;2024-02-26T05:35:21;9.63;;;5.72;;
50605;SDS011;36557;53.572;10.170;2024-02-26T05:37:47;8.30;;;5.50;;
50605;SDS011;36557;53.572;10.170;2024-02-26T05:40:13;8.57;;;5.43;;
50605;SDS011;36557;53.572;10.170;2024-02-26T05:42:39;8.60;;;5.35;;
50605;SDS011;36557;53.572;10.170;2024-02-26T05:45:05;8.85;;;5.15;;
50605;SDS011;36557;53.572;10.170;2024-02-26T05:47:34;7.75;;;4.80;;
50605;SDS011;36557;53.572;10.170;2024-02-26T05:50:01;8.27;;;4.90;;
50605;SDS011;36557;53.572;10.170;2024-02-26T05:52:27;7.03;;;4.80;;
50605;SDS011;36557;53.572;10.170;2024-02-26T05:54:54;6.05;;;4.25;;
50605;SDS011;36557;53.572;10.170;2024-02-26T05:57:20;7.67;;;4.57;;
50605;SDS011;36557;53.572;10.170;2024-02-26T05:59:45;6.83;;;4.57;;
50605;SDS011;36557;53.572;10.170;2024-02-26T06:02:11;7.45;;;5.40;;
50605;SDS011;36557;53.572;10.170;2024-02-26T06:04:37;7.40;;;4.95;;
50605;SDS011;36557;53.572;10.170;2024-02-26T06:07:03;9.05;;;5.22;;
50605;SDS011;36557;53.572;10.170;2024-02-26T06:09:30;8.73;;;5.25;;
50605;SDS011;36557;53.572;10.170;2024-02-26T06:11:55;7.87;;;4.90;;
50605;SDS011;36557;53.572;10.170;2024-02-26T06:14:21;7.97;;;5.60;;
50605;SDS011;36557;53.572;10.170;2024-02-26T06:16:48;9.40;;;5.60;;
50605;SDS011;36557;53.572;10.170;2024-02-26T06:19:14;6.57;;;5.00;;
50605;SDS011;36557;53.572;10.170;2024-02-26T06:21:40;7.73;;;5.27;;
50605;SDS011;36557;53.572;10.170;2024-02-26T06:24:06;8.50;;;5.17;;
50605;SDS011;36557;53.572;10.170;2024-02-26T06:26:31;8.23;;;5.30;;
50605;SDS011;36557;53.572;10.170;2024-02-26T06:28:58;7.43;;;5.07;;
50605;SDS011;36557;53.572;10.170;2024-02-26T06:31:24;8.13;;;5.50;;
50605;SDS011;36557;53.572;10.170;2024-02-26T06:33:52;9.98;;;5.95;;
50605;SDS011;36557;53.572;10.170;2024-02-26T06:36:19;10.23;;;5.93;;
50605;SDS011;36557;53.572;10.170;2024-02-26T06:38:44;10.80;;;5.93;;
50605;SDS011;36557;53.572;10.170;2024-02-26T06:41:10;10.10;;;6.07;;
50605;SDS011;36557;53.572;10.170;2024-02-26T06:43:36;11.63;;;6.80;;
50605;SDS011;36557;53.572;10.170;2024-02-26T06:46:02;9.52;;;6.18;;
50605;SDS011;36557;53.572;10.170;2024-02-26T06:48:28;9.80;;;6.18;;
50605;SDS011;36557;53.572;10.170;2024-02-26T06:50:54;10.68;;;6.63;;
50605;SDS011;36557;53.572;10.170;2024-02-26T06:53:19;9.83;;;6.00;;
50605;SDS011;36557;53.572;10.170;2024-02-26T06:55:45;8.90;;;5.78;;
50605;SDS011;36557;53.572;10.170;2024-02-26T06:58:11;8.23;;;5.60;;
50605;SDS011;36557;53.572;10.170;2024-02-26T07:00:37;10.05;;;6.05;;
50605;SDS011;36557;53.572;10.170;2024-02-26T07:03:03;8.43;;;5.70;;
50605;SDS011;36557;53.572;10.170;2024-02-26T07:05:29;8.80;;;5.68;;
50605;SDS011;36557;53.572;10.170;2024-02-26T07:07:54;9.48;;;5.97;;
50605;SDS011;36557;53.572;10.170;2024-02-26T07:10:20;7.97;;;5.60;;
50605;SDS011;36557;53.572;10.170;2024-02-26T07:12:47;8.50;;;5.80;;
50605;SDS011;36557;53.572;10.170;2024-02-26T07:15:13;7.70;;;5.30;;
50605;SDS011;36557;53.572;10.170;2024-02-26T07:17:39;8.38;;;5.60;;
50605;SDS011;36557;53.572;10.170;2024-02-26T07:20:12;8.80;;;5.57;;
50605;SDS011;36557;53.572;10.170;2024-02-26T07:22:38;8.50;;;5.70;;
50605;SDS011;36557;53.572;10.170;2024-02-26T07:25:04;8.07;;;5.60;;
50605;SDS011;36557;53.572;10.170;2024-02-26T07:27:32;8.20;;;5.43;;
50605;SDS011;36557;53.572;10.170;2024-02-26T07:29:58;8.13;;;5.20;;
50605;SDS011;36557;53.572;10.170;2024-02-26T07:32:24;9.15;;;5.78;;
50605;SDS011;36557;53.572;10.170;2024-02-26T07:34:50;8.38;;;5.60;;
50605;SDS011;36557;53.572;10.170;2024-02-26T07:37:15;8.93;;;5.70;;
50605;SDS011;36557;53.572;10.170;2024-02-26T07:39:41;8.82;;;5.95;;
50605;SDS011;36557;53.572;10.170;2024-02-26T07:42:07;8.82;;;5.78;;
50605;SDS011;36557;53.572;10.170;2024-02-26T07:44:33;9.45;;;6.10;;
50605;SDS011;36557;53.572;10.170;2024-02-26T07:47:00;9.38;;;6.72;;
50605;SDS011;36557;53.572;10.170;2024-02-26T07:49:26;8.75;;;6.00;;
50605;SDS011;36557;53.572;10.170;2024-02-26T07:51:52;8.52;;;5.97;;
50605;SDS011;36557;53.572;10.170;2024-02-26T07:54:18;9.53;;;6.50;;
50605;SDS011;36557;53.572;10.170;2024-02-26T07:56:44;10.23;;;6.32;;
50605;SDS011;36557;53.572;10.170;2024-02-26T07:59:10;10.38;;;6.68;;
50605;SDS011;36557;53.572;10.170;2024-02-26T08:01:37;9.37;;;6.47;;
50605;SDS011;36557;53.572;10.170;2024-02-26T08:04:04;9.23;;;6.60;;
50605;SDS011;36557;53.572;10.170;2024-02-26T08:06:30;10.20;;;6.50;;
50605;SDS011;36557;53.572;10.170;2024-02-26T08:08:56;10.20;;;7.05;;
50605;SDS011;36557;53.572;10.170;2024-02-26T08:11:23;11.35;;;7.20;;
50605;SDS011;36557;53.572;10.170;2024-02-26T08:13:49;10.65;;;6.95;;
50605;SDS011;36557;53.572;10.170;2024-02-26T08:16:15;11.02;;;6.97;;
50605;SDS011;36557;53.572;10.170;2024-02-26T08:18:41;12.32;;;7.15;;
50605;SDS011;36557;53.572;10.170;2024-02-26T08:21:07;10.73;;;7.40;;
50605;SDS011;36557;53.572;10.170;2024-02-26T08:23:33;10.65;;;7.40;;
50605;SDS011;36557;53.572;10.170;2024-02-26T08:25:59;9.75;;;6.72;;
50605;SDS011;36557;53.572;10.170;2024-02-26T08:28:26;10.83;;;7.30;;
50605;SDS011;36557;53.572;10.170;2024-02-26T08:30:52;10.32;;;7.03;;
50605;SDS011;36557;53.572;10.170;2024-02-26T08:33:18;10.40;;;7.20;;
50605;SDS011;36557;53.572;10.170;2024-02-26T08:35:44;9.63;;;7.07;;
50605;SDS011;36557;53.572;10.170;2024-02-26T08:38:10;10.27;;;7.03;;
50605;SDS011;36557;53.572;10.170;2024-02-26T08:40:36;10.65;;;7.30;;
50605;SDS011;36557;53.572;10.170;2024-02-26T08:43:02;10.45;;;7.15;;
50605;SDS011;36557;53.572;10.170;2024-02-26T08:45:28;10.70;;;7.40;;
50605;SDS011;36557;53.572;10.170;2024-02-26T08:47:55;13.17;;;7.67;;
50605;SDS011;36557;53.572;10.170;2024-02-26T08:50:21;11.73;;;7.15;;
50605;SDS011;36557;53.572;10.170;2024-02-26T08:52:47;10.68;;;7.32;;
50605;SDS011;36557;53.572;10.170;2024-02-26T08:55:15;10.00;;;7.45;;
50605;SDS011;36557;53.572;10.170;2024-02-26T08:57:42;11.05;;;7.18;;
50605;SDS011;36557;53.572;10.170;2024-02-26T09:00:08;10.13;;;7.20;;
50605;SDS011;36557;53.572;10.170;2024-02-26T09:02:34;10.70;;;7.43;;
50605;SDS011;36557;53.572;10.170;2024-02-26T09:05:00;10.27;;;7.10;;
50605;SDS011;36557;53.572;10.170;2024-02-26T09:07:26;10.93;;;7.05;;
50605;SDS011;36557;53.572;10.170;2024-02-26T09:09:52;11.87;;;7.40;;
50605;SDS011;36557;53.572;10.170;2024-02-26T09:12:18;9.88;;;6.97;;
50605;SDS011;36557;53.572;10.170;2024-02-26T09:14:44;9.95;;;7.18;;
50605;SDS011;36557;53.572;10.170;2024-02-26T09:17:11;11.75;;;6.85;;
50605;SDS011;36557;53.572;10.170;2024-02-26T09:19:37;10.15;;;7.03;;
50605;SDS011;36557;53.572;10.170;2024-02-26T09:22:03;10.27;;;6.57;;
50605;SDS011;36557;53.572;10.170;2024-02-26T09:24:29;10.60;;;7.30;;
50605;SDS011;36557;53.572;10.170;2024-02-26T09:26:55;8.77;;;6.55;;
50605;SDS011;36557;53.572;10.170;2024-02-26T09:29:21;9.48;;;6.45;;
50605;SDS011;36557;53.572;10.170;2024-02-26T09:31:47;10.00;;;6.22;;
50605;SDS011;36557;53.572;10.170;2024-02-26T09:34:13;8.85;;;6.13;;
50605;SDS011;36557;53.572;10.170;2024-02-26T09:36:39;9.40;;;6.50;;
50605;SDS011;36557;53.572;10.170;2024-02-26T09:39:06;8.60;;;6.05;;
50605;SDS011;36557;53.572;10.170;2024-02-26T09:41:36;8.63;;;6.00;;
50605;SDS011;36557;53.572;10.170;2024-02-26T09:44:03;8.30;;;6.20;;
50605;SDS011;36557;53.572;10.170;2024-02-26T09:46:30;12.00;;;6.32;;
50605;SDS011;36557;53.572;10.170;2024-02-26T09:48:57;7.93;;;5.72;;
50605;SDS011;36557;53.572;10.170;2024-02-26T09:51:24;8.55;;;6.07;;
50605;SDS011;36557;53.572;10.170;2024-02-26T09:53:51;9.10;;;6.20;;
50605;SDS011;36557;53.572;10.170;2024-02-26T09:56:17;8.38;;;5.95;;
50605;SDS011;36557;53.572;10.170;2024-02-26T09:58:43;8.43;;;6.03;;
50605;SDS011;36557;53.572;10.170;2024-02-26T10:01:18;8.85;;;6.00;;
50605;SDS011;36557;53.572;10.170;2024-02-26T10:03:47;8.35;;;5.82;;
50605;SDS011;36557;53.572;10.170;2024-02-26T10:06:13;10.57;;;6.53;;
50605;SDS011;36557;53.572;10.170;2024-02-26T10:08:40;12.02;;;7.10;;
50605;SDS011;36557;53.572;10.170;2024-02-26T10:11:09;10.95;;;7.15;;
50605;SDS011;36557;53.572;10.170;2024-02-26T10:13:36;11.55;;;7.65;;
50605;SDS011;36557;53.572;10.170;2024-02-26T10:16:02;11.85;;;7.22;;
50605;SDS011;36557;53.572;10.170;2024-02-26T10:21:13;12.80;;;7.13;;
50605;SDS011;36557;53.572;10.170;2024-02-26T10:23:41;12.23;;;7.43;;
50605;SDS011;36557;53.572;10.170;2024-02-26T10:26:08;11.52;;;7.47;;
50605;SDS011;36557;53.572;10.170;2024-02-26T10:28:36;14.50;;;7.88;;
50605;SDS011;36557;53.572;10.170;2024-02-26T10:31:02;12.75;;;7.70;;
50605;SDS011;36557;53.572;10.170;2024-02-26T10:33:28;11.95;;;7.18;;
50605;SDS011;36557;53.572;10.170;2024-02-26T10:35:54;14.52;;;8.13;;
50605;SDS011;36557;53.572;10.170;2024-02-26T10:38:20;14.38;;;7.93;;
50605;SDS011;36557;53.572;10.170;2024-02-26T10:40:46;14.05;;;7.75;;
50605;SDS011;36557;53.572;10.170;2024-02-26T10:43:13;13.90;;;8.20;;
50605;SDS011;36557;53.572;10.170;2024-02-26T10:45:41;13.77;;;8.48;;
50605;SDS011;36557;53.572;10.170;2024-02-26T10:48:12;13.43;;;8.03;;
50605;SDS011;36557;53.572;10.170;2024-02-26T10:50:39;13.80;;;8.13;;
50605;SDS011;36557;53.572;10.170;2024-02-26T10:53:07;14.32;;;8.15;;
50605;SDS011;36557;53.572;10.170;2024-02-26T10:55:40;13.32;;;7.63;;
50605;SDS011;36557;53.572;10.170;2024-02-26T10:58:06;14.18;;;8.07;;
50605;SDS011;36557;53.572;10.170;2024-02-26T11:00:34;13.77;;;8.25;;
50605;SDS011;36557;53.572;10.170;2024-02-26T11:03:02;14.27;;;8.38;;
50605;SDS011;36557;53.572;10.170;2024-02-26T11:05:30;14.45;;;8.10;;
50605;SDS011;36557;53.572;10.170;2024-02-26T11:07:59;15.93;;;8.93;;
50605;SDS011;36557;53.572;10.170;2024-02-26T11:10:26;15.80;;;9.25;;
50605;SDS011;36557;53.572;10.170;2024-02-26T11:12:55;15.57;;;9.40;;
50605;SDS011;36557;53.572;10.170;2024-02-26T11:15:22;16.53;;;9.63;;
50605;SDS011;36557;53.572;10.170;2024-02-26T11:17:49;18.83;;;10.07;;
50605;SDS011;36557;53.572;10.170;2024-02-26T11:20:17;15.68;;;9.52;;
50605;SDS011;36557;53.572;10.170;2024-02-26T11:22:44;15.00;;;8.97;;
50605;SDS011;36557;53.572;10.170;2024-02-26T11:25:10;14.05;;;8.23;;
50605;SDS011;36557;53.572;10.170;2024-02-26T11:27:43;13.93;;;8.38;;
50605;SDS011;36557;53.572;10.170;2024-02-26T11:30:14;15.18;;;8.32;;
50605;SDS011;36557;53.572;10.170;2024-02-26T11:32:43;13.55;;;7.63;;
50605;SDS011;36557;53.572;10.170;2024-02-26T11:35:12;14.63;;;8.05;;
50605;SDS011;36557;53.572;10.170;2024-02-26T11:37:41;13.75;;;7.97;;
50605;SDS011;36557;53.572;10.170;2024-02-26T11:40:21;14.15;;;8.35;;
50605;SDS011;36557;53.572;10.170;2024-02-26T11:42:51;13.57;;;8.45;;
50605;SDS011;36557;53.572;10.170;2024-02-26T11:48:02;13.90;;;8.68;;
50605;SDS011;36557;53.572;10.170;2024-02-26T11:50:35;16.73;;;9.05;;
50605;SDS011;36557;53.572;10.170;2024-02-26T11:53:22;15.00;;;8.73;;
50605;SDS011;36557;53.572;10.170;2024-02-26T11:58:43;16.88;;;9.13;;
50605;SDS011;36557;53.572;10.170;2024-02-26T12:04:06;15.03;;;9.10;;
50605;SDS011;36557;53.572;10.170;2024-02-26T12:06:55;14.88;;;9.43;;
50605;SDS011;36557;53.572;10.170;2024-02-26T12:09:32;13.13;;;7.90;;
50605;SDS011;36557;53.572;10.170;2024-02-26T12:11:57;13.50;;;7.97;;
50605;SDS011;36557;53.572;10.170;2024-02-26T12:14:27;14.07;;;8.63;;
50605;SDS011;36557;53.572;10.170;2024-02-26T12:16:53;12.57;;;7.73;;
50605;SDS011;36557;53.572;10.170;2024-02-26T12:19:20;12.30;;;7.90;;
50605;SDS011;36557;53.572;10.170;2024-02-26T12:21:48;13.32;;;7.90;;
50605;SDS011;36557;53.572;10.170;2024-02-26T12:24:17;13.20;;;7.93;;
50605;SDS011;36557;53.572;10.170;2024-02-26T12:26:45;12.82;;;8.00;;
50605;SDS011;36557;53.572;10.170;2024-02-26T12:29:10;13.33;;;8.07;;
50605;SDS011;36557;53.572;10.170;2024-02-26T12:31:36;12.45;;;7.70;;
50605;SDS011;36557;53.572;10.170;2024-02-26T12:34:03;11.57;;;7.25;;
50605;SDS011;36557;53.572;10.170;2024-02-26T12:36:30;12.40;;;7.38;;
50605;SDS011;36557;53.572;10.170;2024-02-26T12:38:56;12.38;;;7.47;;
50605;SDS011;36557;53.572;10.170;2024-02-26T12:41:22;12.10;;;7.20;;
50605;SDS011;36557;53.572;10.170;2024-02-26T12:43:48;12.50;;;7.60;;
50605;SDS011;36557;53.572;10.170;2024-02-26T12:46:14;11.00;;;7.10;;
50605;SDS011;36557;53.572;10.170;2024-02-26T12:48:42;12.73;;;7.23;;
50605;SDS011;36557;53.572;10.170;2024-02-26T12:51:10;13.18;;;7.28;;
50605;SDS011;36557;53.572;10.170;2024-02-26T12:53:37;12.23;;;7.20;;
50605;SDS011;36557;53.572;10.170;2024-02-26T12:56:09;12.23;;;7.43;;
50605;SDS011;36557;53.572;10.170;2024-02-26T12:58:38;13.23;;;8.25;;
50605;SDS011;36557;53.572;10.170;2024-02-26T13:01:05;14.68;;;8.15;;
50605;SDS011;36557;53.572;10.170;2024-02-26T13:03:32;13.63;;;8.43;;
50605;SDS011;36557;53.572;10.170;2024-02-26T13:06:00;12.60;;;7.68;;
50605;SDS011;36557;53.572;10.170;2024-02-26T13:08:25;15.15;;;8.45;;
50605;SDS011;36557;53.572;10.170;2024-02-26T13:10:51;14.43;;;8.70;;
50605;SDS011;36557;53.572;10.170;2024-02-26T13:13:18;15.48;;;8.55;;
50605;SDS011;36557;53.572;10.170;2024-02-26T13:15:45;12.75;;;8.07;;
50605;SDS011;36557;53.572;10.170;2024-02-26T13:18:12;13.95;;;8.13;;
50605;SDS011;36557;53.572;10.170;2024-02-26T13:20:38;13.10;;;8.45;;
50605;SDS011;36557;53.572;10.170;2024-02-26T13:23:09;14.68;;;8.40;;
50605;SDS011;36557;53.572;10.170;2024-02-26T13:25:36;13.20;;;7.97;;
50605;SDS011;36557;53.572;10.170;2024-02-26T13:28:17;13.07;;;7.53;;
50605;SDS011;36557;53.572;10.170;2024-02-26T13:30:54;12.57;;;7.47;;
50605;SDS011;36557;53.572;10.170;2024-02-26T13:33:25;12.20;;;7.30;;
50605;SDS011;36557;53.572;10.170;2024-02-26T13:35:52;12.00;;;7.80;;
50605;SDS011;36557;53.572;10.170;2024-02-26T13:38:19;13.50;;;8.13;;
50605;SDS011;36557;53.572;10.170;2024-02-26T13:40:45;11.00;;;7.38;;
50605;SDS011;36557;53.572;10.170;2024-02-26T13:43:10;11.00;;;7.20;;
50605;SDS011;36557;53.572;10.170;2024-02-26T13:45:37;11.32;;;6.68;;
50605;SDS011;36557;53.572;10.170;2024-02-26T13:48:04;10.07;;;6.38;;
50605;SDS011;36557;53.572;10.170;2024-02-26T13:50:31;12.23;;;6.67;;
50605;SDS011;36557;53.572;10.170;2024-02-26T13:52:57;12.43;;;6.85;;
50605;SDS011;36557;53.572;10.170;2024-02-26T13:55:25;11.47;;;7.20;;
50605;SDS011;36557;53.572;10.170;2024-02-26T13:57:53;10.65;;;6.47;;
50605;SDS011;36557;53.572;10.170;2024-02-26T14:00:20;10.33;;;6.80;;
50605;SDS011;36557;53.572;10.170;2024-02-26T14:02:46;10.87;;;6.80;;
50605;SDS011;36557;53.572;10.170;2024-02-26T14:05:12;11.60;;;6.93;;
50605;SDS011;36557;53.572;10.170;2024-02-26T14:07:38;12.82;;;6.90;;
50605;SDS011;36557;53.572;10.170;2024-02-26T14:10:04;11.30;;;6.68;;
50605;SDS011;36557;53.572;10.170;2024-02-26T14:12:30;11.20;;;7.25;;
50605;SDS011;36557;53.572;10.170;2024-02-26T14:14:56;10.97;;;7.17;;
50605;SDS011;36557;53.572;10.170;2024-02-26T14:17:24;12.93;;;7.70;;
50605;SDS011;36557;53.572;10.170;2024-02-26T14:19:49;13.35;;;7.90;;
50605;SDS011;36557;53.572;10.170;2024-02-26T14:22:15;14.27;;;8.37;;
50605;SDS011;36557;53.572;10.170;2024-02-26T14:24:41;13.40;;;8.18;;
50605;SDS011;36557;53.572;10.170;2024-02-26T14:27:11;12.35;;;7.93;;
50605;SDS011;36557;53.572;10.170;2024-02-26T14:29:41;13.30;;;8.43;;
50605;SDS011;36557;53.572;10.170;2024-02-26T14:32:08;12.48;;;7.88;;
50605;SDS011;36557;53.572;10.170;2024-02-26T14:34:34;13.73;;;8.20;;
50605;SDS011;36557;53.572;10.170;2024-02-26T14:37:00;13.43;;;8.50;;